Terminal Aerodrome Forecast
Issued by NWS Wilmington, OH

Current Version | Previous Version | Graphics & Text | Print | Product List | Glossary On
Versions: 1 2 3 4 5 6 7 8 9 10 11 12 13 14 15 16 17 18 19 20 21 22 23 24 25 26 27 28 29 30 31 32 33 34 35 36 37 38 39 40
000
FTUS41 KILN 272334
TAFCVG
TAF
KCVG 272334Z 2800/2906 07009KT 4SM BR VCSH FEW008 BKN090 OVC170
     FM280300 10006KT 5SM -SHRA BR OVC025
     FM280700 17004KT 3SM BR VCSH OVC008
     FM281400 24008KT P6SM BKN022
     FM281800 26010KT P6SM BKN035
     FM290000 27006KT P6SM BKN035=

USA.gov is the U.S. government's official web portal to all federal, state and local government web resources and services.